sensor_id;sensor_type;location;lat;lon;timestamp;P1;durP1;ratioP1;P2;durP2;ratioP2
215;SDS011;70668;48.81286795;9.14184224;2024-01-15T00:00:22;28.00;;;12.02;;
215;SDS011;70668;48.81286795;9.14184224;2024-01-15T00:02:50;31.40;;;11.75;;
215;SDS011;70668;48.81286795;9.14184224;2024-01-15T00:05:19;28.80;;;11.23;;
215;SDS011;70668;48.81286795;9.14184224;2024-01-15T00:07:47;29.27;;;11.30;;
215;SDS011;70668;48.81286795;9.14184224;2024-01-15T00:10:16;28.75;;;11.60;;
215;SDS011;70668;48.81286795;9.14184224;2024-01-15T00:12:44;29.92;;;11.77;;
215;SDS011;70668;48.81286795;9.14184224;2024-01-15T00:15:15;29.20;;;11.25;;
215;SDS011;70668;48.81286795;9.14184224;2024-01-15T00:17:44;29.00;;;11.77;;
215;SDS011;70668;48.81286795;9.14184224;2024-01-15T00:20:12;27.88;;;11.05;;
215;SDS011;70668;48.81286795;9.14184224;2024-01-15T00:22:41;31.23;;;12.00;;
215;SDS011;70668;48.81286795;9.14184224;2024-01-15T00:25:09;25.65;;;10.52;;
215;SDS011;70668;48.81286795;9.14184224;2024-01-15T00:27:38;30.27;;;11.38;;
215;SDS011;70668;48.81286795;9.14184224;2024-01-15T00:30:06;28.73;;;10.82;;
215;SDS011;70668;48.81286795;9.14184224;2024-01-15T00:32:38;25.88;;;10.32;;
215;SDS011;70668;48.81286795;9.14184224;2024-01-15T00:35:07;29.90;;;10.50;;
215;SDS011;70668;48.81286795;9.14184224;2024-01-15T00:37:36;28.90;;;10.63;;
215;SDS011;70668;48.81286795;9.14184224;2024-01-15T00:40:05;27.90;;;10.60;;
215;SDS011;70668;48.81286795;9.14184224;2024-01-15T00:42:34;26.83;;;10.80;;
215;SDS011;70668;48.81286795;9.14184224;2024-01-15T00:45:03;30.25;;;11.18;;
215;SDS011;70668;48.81286795;9.14184224;2024-01-15T00:47:33;26.88;;;10.48;;
215;SDS011;70668;48.81286795;9.14184224;2024-01-15T00:50:05;25.63;;;10.18;;
215;SDS011;70668;48.81286795;9.14184224;2024-01-15T00:52:34;30.92;;;11.23;;
215;SDS011;70668;48.81286795;9.14184224;2024-01-15T00:55:03;31.67;;;10.95;;
215;SDS011;70668;48.81286795;9.14184224;2024-01-15T00:57:32;27.13;;;11.15;;
215;SDS011;70668;48.81286795;9.14184224;2024-01-15T01:00:00;28.00;;;10.02;;
215;SDS011;70668;48.81286795;9.14184224;2024-01-15T01:02:29;31.67;;;10.57;;
215;SDS011;70668;48.81286795;9.14184224;2024-01-15T01:04:57;26.65;;;10.75;;
215;SDS011;70668;48.81286795;9.14184224;2024-01-15T01:07:29;24.13;;;10.15;;
215;SDS011;70668;48.81286795;9.14184224;2024-01-15T01:09:57;25.17;;;10.18;;
215;SDS011;70668;48.81286795;9.14184224;2024-01-15T01:12:25;25.45;;;10.25;;
215;SDS011;70668;48.81286795;9.14184224;2024-01-15T01:14:55;29.48;;;10.45;;
215;SDS011;70668;48.81286795;9.14184224;2024-01-15T01:17:24;25.15;;;9.60;;
215;SDS011;70668;48.81286795;9.14184224;2024-01-15T01:19:53;26.50;;;10.43;;
215;SDS011;70668;48.81286795;9.14184224;2024-01-15T01:22:22;25.13;;;10.18;;
215;SDS011;70668;48.81286795;9.14184224;2024-01-15T01:24:53;25.38;;;10.25;;
215;SDS011;70668;48.81286795;9.14184224;2024-01-15T01:27:21;23.70;;;9.65;;
215;SDS011;70668;48.81286795;9.14184224;2024-01-15T01:29:50;24.25;;;9.88;;
215;SDS011;70668;48.81286795;9.14184224;2024-01-15T01:32:18;26.95;;;10.40;;
215;SDS011;70668;48.81286795;9.14184224;2024-01-15T01:34:47;28.02;;;10.77;;
215;SDS011;70668;48.81286795;9.14184224;2024-01-15T01:37:15;31.60;;;9.80;;
215;SDS011;70668;48.81286795;9.14184224;2024-01-15T01:39:44;28.10;;;10.45;;
215;SDS011;70668;48.81286795;9.14184224;2024-01-15T01:42:15;23.60;;;9.18;;
215;SDS011;70668;48.81286795;9.14184224;2024-01-15T01:44:43;24.88;;;9.85;;
215;SDS011;70668;48.81286795;9.14184224;2024-01-15T01:47:12;23.58;;;9.77;;
215;SDS011;70668;48.81286795;9.14184224;2024-01-15T01:49:41;27.05;;;9.73;;
215;SDS011;70668;48.81286795;9.14184224;2024-01-15T01:52:10;25.75;;;9.65;;
215;SDS011;70668;48.81286795;9.14184224;2024-01-15T01:54:38;25.13;;;9.80;;
215;SDS011;70668;48.81286795;9.14184224;2024-01-15T01:57:08;28.70;;;9.20;;
215;SDS011;70668;48.81286795;9.14184224;2024-01-15T01:59:39;24.17;;;10.00;;
215;SDS011;70668;48.81286795;9.14184224;2024-01-15T02:02:08;26.33;;;10.82;;
215;SDS011;70668;48.81286795;9.14184224;2024-01-15T02:04:37;25.10;;;9.85;;
215;SDS011;70668;48.81286795;9.14184224;2024-01-15T02:07:06;25.50;;;10.70;;
215;SDS011;70668;48.81286795;9.14184224;2024-01-15T02:09:32;23.37;;;9.23;;
215;SDS011;70668;48.81286795;9.14184224;2024-01-15T02:12:00;26.70;;;9.68;;
215;SDS011;70668;48.81286795;9.14184224;2024-01-15T02:14:29;19.80;;;8.63;;
215;SDS011;70668;48.81286795;9.14184224;2024-01-15T02:17:00;22.20;;;8.88;;
215;SDS011;70668;48.81286795;9.14184224;2024-01-15T02:19:28;20.70;;;9.23;;
215;SDS011;70668;48.81286795;9.14184224;2024-01-15T02:21:57;21.42;;;9.00;;
215;SDS011;70668;48.81286795;9.14184224;2024-01-15T02:24:28;22.88;;;9.10;;
215;SDS011;70668;48.81286795;9.14184224;2024-01-15T02:26:56;24.20;;;9.85;;
215;SDS011;70668;48.81286795;9.14184224;2024-01-15T02:29:25;21.75;;;8.60;;
215;SDS011;70668;48.81286795;9.14184224;2024-01-15T02:31:54;24.23;;;8.90;;
215;SDS011;70668;48.81286795;9.14184224;2024-01-15T02:34:22;26.58;;;9.77;;
215;SDS011;70668;48.81286795;9.14184224;2024-01-15T02:36:51;20.75;;;9.15;;
215;SDS011;70668;48.81286795;9.14184224;2024-01-15T02:39:19;22.02;;;9.00;;
215;SDS011;70668;48.81286795;9.14184224;2024-01-15T02:41:50;20.25;;;8.82;;
215;SDS011;70668;48.81286795;9.14184224;2024-01-15T02:44:21;22.15;;;9.18;;
215;SDS011;70668;48.81286795;9.14184224;2024-01-15T02:46:49;22.77;;;8.95;;
215;SDS011;70668;48.81286795;9.14184224;2024-01-15T02:49:18;25.48;;;9.38;;
215;SDS011;70668;48.81286795;9.14184224;2024-01-15T02:51:46;26.65;;;9.85;;
215;SDS011;70668;48.81286795;9.14184224;2024-01-15T02:54:15;23.35;;;9.00;;
215;SDS011;70668;48.81286795;9.14184224;2024-01-15T02:56:43;23.60;;;9.18;;
215;SDS011;70668;48.81286795;9.14184224;2024-01-15T02:59:14;23.92;;;9.30;;
215;SDS011;70668;48.81286795;9.14184224;2024-01-15T03:01:43;23.10;;;9.05;;
215;SDS011;70668;48.81286795;9.14184224;2024-01-15T03:04:11;22.17;;;9.73;;
215;SDS011;70668;48.81286795;9.14184224;2024-01-15T03:06:40;20.60;;;8.07;;
215;SDS011;70668;48.81286795;9.14184224;2024-01-15T03:09:08;21.33;;;8.95;;
215;SDS011;70668;48.81286795;9.14184224;2024-01-15T03:11:37;22.25;;;9.20;;
215;SDS011;70668;48.81286795;9.14184224;2024-01-15T03:14:06;23.17;;;9.57;;
215;SDS011;70668;48.81286795;9.14184224;2024-01-15T03:16:37;23.13;;;9.10;;
215;SDS011;70668;48.81286795;9.14184224;2024-01-15T03:19:05;25.42;;;9.93;;
215;SDS011;70668;48.81286795;9.14184224;2024-01-15T03:21:34;25.17;;;8.65;;
215;SDS011;70668;48.81286795;9.14184224;2024-01-15T03:24:02;22.75;;;9.07;;
215;SDS011;70668;48.81286795;9.14184224;2024-01-15T03:26:31;21.05;;;9.18;;
215;SDS011;70668;48.81286795;9.14184224;2024-01-15T03:29:00;23.55;;;9.35;;
215;SDS011;70668;48.81286795;9.14184224;2024-01-15T03:31:28;24.05;;;9.30;;
215;SDS011;70668;48.81286795;9.14184224;2024-01-15T03:33:59;32.65;;;9.70;;
215;SDS011;70668;48.81286795;9.14184224;2024-01-15T03:36:28;21.13;;;9.15;;
215;SDS011;70668;48.81286795;9.14184224;2024-01-15T03:38:57;22.60;;;9.00;;
215;SDS011;70668;48.81286795;9.14184224;2024-01-15T03:41:25;19.98;;;8.80;;
215;SDS011;70668;48.81286795;9.14184224;2024-01-15T03:43:54;23.13;;;9.48;;
215;SDS011;70668;48.81286795;9.14184224;2024-01-15T03:46:23;22.80;;;8.75;;
215;SDS011;70668;48.81286795;9.14184224;2024-01-15T03:48:52;22.10;;;9.05;;
215;SDS011;70668;48.81286795;9.14184224;2024-01-15T03:51:23;22.23;;;9.02;;
215;SDS011;70668;48.81286795;9.14184224;2024-01-15T03:53:52;20.45;;;8.90;;
215;SDS011;70668;48.81286795;9.14184224;2024-01-15T03:56:21;19.70;;;8.27;;
215;SDS011;70668;48.81286795;9.14184224;2024-01-15T03:58:49;20.95;;;8.18;;
215;SDS011;70668;48.81286795;9.14184224;2024-01-15T04:01:18;20.50;;;8.05;;
215;SDS011;70668;48.81286795;9.14184224;2024-01-15T04:03:46;19.35;;;7.78;;
215;SDS011;70668;48.81286795;9.14184224;2024-01-15T04:06:15;20.25;;;7.85;;
215;SDS011;70668;48.81286795;9.14184224;2024-01-15T04:08:46;21.27;;;8.30;;
215;SDS011;70668;48.81286795;9.14184224;2024-01-15T04:11:14;22.67;;;8.30;;
215;SDS011;70668;48.81286795;9.14184224;2024-01-15T04:13:43;21.13;;;7.90;;
215;SDS011;70668;48.81286795;9.14184224;2024-01-15T04:16:11;22.90;;;7.47;;
215;SDS011;70668;48.81286795;9.14184224;2024-01-15T04:18:39;17.60;;;7.55;;
215;SDS011;70668;48.81286795;9.14184224;2024-01-15T04:21:08;21.73;;;8.10;;
215;SDS011;70668;48.81286795;9.14184224;2024-01-15T04:23:37;18.27;;;7.40;;
215;SDS011;70668;48.81286795;9.14184224;2024-01-15T04:26:09;23.27;;;8.05;;
215;SDS011;70668;48.81286795;9.14184224;2024-01-15T04:28:37;20.58;;;7.80;;
215;SDS011;70668;48.81286795;9.14184224;2024-01-15T04:31:06;20.10;;;8.75;;
215;SDS011;70668;48.81286795;9.14184224;2024-01-15T04:33:35;15.07;;;6.50;;
215;SDS011;70668;48.81286795;9.14184224;2024-01-15T04:36:04;18.63;;;7.97;;
215;SDS011;70668;48.81286795;9.14184224;2024-01-15T04:38:33;13.63;;;5.65;;
215;SDS011;70668;48.81286795;9.14184224;2024-01-15T04:41:01;19.70;;;7.60;;
215;SDS011;70668;48.81286795;9.14184224;2024-01-15T04:43:33;21.05;;;7.85;;
215;SDS011;70668;48.81286795;9.14184224;2024-01-15T04:46:01;19.25;;;7.53;;
215;SDS011;70668;48.81286795;9.14184224;2024-01-15T04:48:30;18.98;;;7.90;;
215;SDS011;70668;48.81286795;9.14184224;2024-01-15T04:50:59;19.58;;;8.23;;
215;SDS011;70668;48.81286795;9.14184224;2024-01-15T04:53:27;18.65;;;7.95;;
215;SDS011;70668;48.81286795;9.14184224;2024-01-15T04:55:56;19.10;;;7.68;;
215;SDS011;70668;48.81286795;9.14184224;2024-01-15T04:58:24;21.10;;;8.05;;
215;SDS011;70668;48.81286795;9.14184224;2024-01-15T05:00:55;17.17;;;7.72;;
215;SDS011;70668;48.81286795;9.14184224;2024-01-15T05:03:24;20.15;;;7.78;;
215;SDS011;70668;48.81286795;9.14184224;2024-01-15T05:05:52;17.02;;;7.43;;
215;SDS011;70668;48.81286795;9.14184224;2024-01-15T05:08:21;18.48;;;7.97;;
215;SDS011;70668;48.81286795;9.14184224;2024-01-15T05:10:49;21.60;;;7.85;;
215;SDS011;70668;48.81286795;9.14184224;2024-01-15T05:13:18;20.60;;;8.25;;
215;SDS011;70668;48.81286795;9.14184224;2024-01-15T05:15:46;21.58;;;7.88;;
215;SDS011;70668;48.81286795;9.14184224;2024-01-15T05:18:18;17.08;;;8.05;;
215;SDS011;70668;48.81286795;9.14184224;2024-01-15T05:20:46;18.42;;;7.70;;
215;SDS011;70668;48.81286795;9.14184224;2024-01-15T05:23:14;15.23;;;6.60;;
215;SDS011;70668;48.81286795;9.14184224;2024-01-15T05:25:43;16.33;;;6.97;;
215;SDS011;70668;48.81286795;9.14184224;2024-01-15T05:28:11;16.60;;;7.30;;
215;SDS011;70668;48.81286795;9.14184224;2024-01-15T05:30:40;16.55;;;7.20;;
215;SDS011;70668;48.81286795;9.14184224;2024-01-15T05:33:09;15.75;;;6.97;;
215;SDS011;70668;48.81286795;9.14184224;2024-01-15T05:35:40;17.23;;;7.18;;
215;SDS011;70668;48.81286795;9.14184224;2024-01-15T05:38:08;16.92;;;6.53;;
215;SDS011;70668;48.81286795;9.14184224;2024-01-15T05:40:37;16.58;;;7.10;;
215;SDS011;70668;48.81286795;9.14184224;2024-01-15T05:43:05;14.90;;;6.70;;
215;SDS011;70668;48.81286795;9.14184224;2024-01-15T05:45:34;16.13;;;6.80;;
215;SDS011;70668;48.81286795;9.14184224;2024-01-15T05:48:03;17.92;;;7.65;;
215;SDS011;70668;48.81286795;9.14184224;2024-01-15T05:50:32;14.35;;;6.60;;
215;SDS011;70668;48.81286795;9.14184224;2024-01-15T05:53:03;15.02;;;6.97;;
215;SDS011;70668;48.81286795;9.14184224;2024-01-15T05:55:32;14.40;;;6.75;;
215;SDS011;70668;48.81286795;9.14184224;2024-01-15T05:58:00;15.60;;;6.85;;
215;SDS011;70668;48.81286795;9.14184224;2024-01-15T06:00:29;15.75;;;7.53;;
215;SDS011;70668;48.81286795;9.14184224;2024-01-15T06:02:58;17.02;;;6.85;;
215;SDS011;70668;48.81286795;9.14184224;2024-01-15T06:05:27;15.70;;;6.97;;
215;SDS011;70668;48.81286795;9.14184224;2024-01-15T06:07:55;16.10;;;6.80;;
215;SDS011;70668;48.81286795;9.14184224;2024-01-15T06:10:26;18.73;;;7.40;;
215;SDS011;70668;48.81286795;9.14184224;2024-01-15T06:12:55;17.83;;;7.75;;
215;SDS011;70668;48.81286795;9.14184224;2024-01-15T06:15:24;17.92;;;7.30;;
215;SDS011;70668;48.81286795;9.14184224;2024-01-15T06:17:52;19.00;;;8.02;;
215;SDS011;70668;48.81286795;9.14184224;2024-01-15T06:20:21;17.67;;;7.32;;
215;SDS011;70668;48.81286795;9.14184224;2024-01-15T06:22:49;18.58;;;8.38;;
215;SDS011;70668;48.81286795;9.14184224;2024-01-15T06:25:18;18.25;;;7.88;;
215;SDS011;70668;48.81286795;9.14184224;2024-01-15T06:27:49;17.05;;;7.35;;
215;SDS011;70668;48.81286795;9.14184224;2024-01-15T06:30:17;21.48;;;8.52;;
215;SDS011;70668;48.81286795;9.14184224;2024-01-15T06:32:46;18.48;;;7.65;;
215;SDS011;70668;48.81286795;9.14184224;2024-01-15T06:35:15;16.90;;;7.55;;
215;SDS011;70668;48.81286795;9.14184224;2024-01-15T06:37:45;17.80;;;8.40;;
215;SDS011;70668;48.81286795;9.14184224;2024-01-15T06:40:13;21.52;;;8.68;;
215;SDS011;70668;48.81286795;9.14184224;2024-01-15T06:42:42;21.10;;;7.80;;
215;SDS011;70668;48.81286795;9.14184224;2024-01-15T06:45:13;20.23;;;8.23;;
215;SDS011;70668;48.81286795;9.14184224;2024-01-15T06:47:42;16.88;;;8.25;;
215;SDS011;70668;48.81286795;9.14184224;2024-01-15T06:50:10;19.35;;;8.43;;
215;SDS011;70668;48.81286795;9.14184224;2024-01-15T06:52:39;17.77;;;7.70;;
215;SDS011;70668;48.81286795;9.14184224;2024-01-15T06:55:07;20.80;;;8.32;;
215;SDS011;70668;48.81286795;9.14184224;2024-01-15T06:57:36;20.80;;;8.32;;
215;SDS011;70668;48.81286795;9.14184224;2024-01-15T07:00:05;20.38;;;7.93;;
215;SDS011;70668;48.81286795;9.14184224;2024-01-15T07:02:38;19.83;;;8.45;;
215;SDS011;70668;48.81286795;9.14184224;2024-01-15T07:05:07;18.08;;;7.68;;
215;SDS011;70668;48.81286795;9.14184224;2024-01-15T07:07:36;20.08;;;8.13;;
215;SDS011;70668;48.81286795;9.14184224;2024-01-15T07:10:05;18.13;;;7.82;;
215;SDS011;70668;48.81286795;9.14184224;2024-01-15T07:12:35;18.10;;;8.40;;
215;SDS011;70668;48.81286795;9.14184224;2024-01-15T07:15:04;19.15;;;8.20;;
215;SDS011;70668;48.81286795;9.14184224;2024-01-15T07:17:33;17.60;;;7.30;;
215;SDS011;70668;48.81286795;9.14184224;2024-01-15T07:20:08;15.75;;;7.65;;
215;SDS011;70668;48.81286795;9.14184224;2024-01-15T07:22:37;18.75;;;7.35;;
215;SDS011;70668;48.81286795;9.14184224;2024-01-15T07:25:08;18.50;;;8.35;;
215;SDS011;70668;48.81286795;9.14184224;2024-01-15T07:27:38;20.38;;;8.35;;
215;SDS011;70668;48.81286795;9.14184224;2024-01-15T07:30:09;18.95;;;8.18;;
215;SDS011;70668;48.81286795;9.14184224;2024-01-15T07:32:39;18.40;;;8.23;;
215;SDS011;70668;48.81286795;9.14184224;2024-01-15T07:35:10;20.60;;;8.23;;
215;SDS011;70668;48.81286795;9.14184224;2024-01-15T07:37:39;23.27;;;8.02;;
215;SDS011;70668;48.81286795;9.14184224;2024-01-15T07:40:08;22.98;;;8.55;;
215;SDS011;70668;48.81286795;9.14184224;2024-01-15T07:42:37;20.10;;;8.60;;
215;SDS011;70668;48.81286795;9.14184224;2024-01-15T07:45:08;19.52;;;8.73;;
215;SDS011;70668;48.81286795;9.14184224;2024-01-15T07:47:37;19.85;;;8.43;;
215;SDS011;70668;48.81286795;9.14184224;2024-01-15T07:50:05;18.45;;;8.57;;
215;SDS011;70668;48.81286795;9.14184224;2024-01-15T07:52:36;23.35;;;8.43;;
215;SDS011;70668;48.81286795;9.14184224;2024-01-15T07:55:05;23.77;;;8.40;;
215;SDS011;70668;48.81286795;9.14184224;2024-01-15T07:57:34;18.00;;;8.50;;
215;SDS011;70668;48.81286795;9.14184224;2024-01-15T08:00:03;19.73;;;8.70;;
215;SDS011;70668;48.81286795;9.14184224;2024-01-15T08:02:34;20.27;;;8.70;;
215;SDS011;70668;48.81286795;9.14184224;2024-01-15T08:05:03;23.17;;;9.30;;
215;SDS011;70668;48.81286795;9.14184224;2024-01-15T08:07:31;19.55;;;8.35;;
215;SDS011;70668;48.81286795;9.14184224;2024-01-15T08:10:02;21.55;;;8.65;;
215;SDS011;70668;48.81286795;9.14184224;2024-01-15T08:12:31;20.63;;;8.85;;
215;SDS011;70668;48.81286795;9.14184224;2024-01-15T08:15:00;22.77;;;9.20;;
215;SDS011;70668;48.81286795;9.14184224;2024-01-15T08:17:30;20.58;;;8.77;;
215;SDS011;70668;48.81286795;9.14184224;2024-01-15T08:19:58;21.67;;;9.57;;
215;SDS011;70668;48.81286795;9.14184224;2024-01-15T08:22:28;20.35;;;9.15;;
215;SDS011;70668;48.81286795;9.14184224;2024-01-15T08:24:57;23.23;;;9.38;;
215;SDS011;70668;48.81286795;9.14184224;2024-01-15T08:27:28;21.75;;;8.90;;
215;SDS011;70668;48.81286795;9.14184224;2024-01-15T08:29:57;21.95;;;8.75;;
215;SDS011;70668;48.81286795;9.14184224;2024-01-15T08:32:25;21.20;;;8.80;;
215;SDS011;70668;48.81286795;9.14184224;2024-01-15T08:34:55;17.50;;;7.72;;
215;SDS011;70668;48.81286795;9.14184224;2024-01-15T08:37:23;17.65;;;7.50;;
215;SDS011;70668;48.81286795;9.14184224;2024-01-15T08:39:52;22.10;;;8.20;;
215;SDS011;70668;48.81286795;9.14184224;2024-01-15T08:42:20;18.88;;;7.65;;
215;SDS011;70668;48.81286795;9.14184224;2024-01-15T08:44:51;14.25;;;7.22;;
215;SDS011;70668;48.81286795;9.14184224;2024-01-15T08:47:20;17.77;;;7.60;;
215;SDS011;70668;48.81286795;9.14184224;2024-01-15T08:49:48;16.25;;;7.63;;
215;SDS011;70668;48.81286795;9.14184224;2024-01-15T08:52:17;14.98;;;6.95;;
215;SDS011;70668;48.81286795;9.14184224;2024-01-15T08:54:45;21.20;;;7.97;;
215;SDS011;70668;48.81286795;9.14184224;2024-01-15T08:57:14;15.60;;;6.87;;
215;SDS011;70668;48.81286795;9.14184224;2024-01-15T08:59:42;19.00;;;7.03;;
215;SDS011;70668;48.81286795;9.14184224;2024-01-15T09:02:13;16.48;;;7.45;;
215;SDS011;70668;48.81286795;9.14184224;2024-01-15T09:04:42;22.63;;;7.45;;
215;SDS011;70668;48.81286795;9.14184224;2024-01-15T09:07:10;16.90;;;7.50;;
215;SDS011;70668;48.81286795;9.14184224;2024-01-15T09:09:39;15.52;;;7.40;;
215;SDS011;70668;48.81286795;9.14184224;2024-01-15T09:12:08;15.43;;;6.80;;
215;SDS011;70668;48.81286795;9.14184224;2024-01-15T09:14:40;13.82;;;6.47;;
215;SDS011;70668;48.81286795;9.14184224;2024-01-15T09:17:09;15.40;;;7.28;;
215;SDS011;70668;48.81286795;9.14184224;2024-01-15T09:19:40;14.93;;;6.43;;
215;SDS011;70668;48.81286795;9.14184224;2024-01-15T09:22:09;14.55;;;6.57;;
215;SDS011;70668;48.81286795;9.14184224;2024-01-15T09:24:39;14.32;;;6.15;;
215;SDS011;70668;48.81286795;9.14184224;2024-01-15T09:27:08;13.30;;;5.90;;
215;SDS011;70668;48.81286795;9.14184224;2024-01-15T09:29:37;14.65;;;6.00;;
215;SDS011;70668;48.81286795;9.14184224;2024-01-15T09:32:07;15.05;;;5.90;;
215;SDS011;70668;48.81286795;9.14184224;2024-01-15T09:34:35;14.65;;;6.10;;
215;SDS011;70668;48.81286795;9.14184224;2024-01-15T09:37:06;14.73;;;5.90;;
215;SDS011;70668;48.81286795;9.14184224;2024-01-15T09:39:35;13.90;;;5.72;;
215;SDS011;70668;48.81286795;9.14184224;2024-01-15T09:42:04;13.27;;;6.03;;
215;SDS011;70668;48.81286795;9.14184224;2024-01-15T09:44:33;14.07;;;6.03;;
215;SDS011;70668;48.81286795;9.14184224;2024-01-15T09:47:03;15.40;;;5.50;;
215;SDS011;70668;48.81286795;9.14184224;2024-01-15T09:49:33;12.20;;;5.88;;
215;SDS011;70668;48.81286795;9.14184224;2024-01-15T09:52:04;13.90;;;6.18;;
215;SDS011;70668;48.81286795;9.14184224;2024-01-15T09:54:36;14.60;;;5.93;;
215;SDS011;70668;48.81286795;9.14184224;2024-01-15T09:57:05;12.02;;;5.82;;
215;SDS011;70668;48.81286795;9.14184224;2024-01-15T09:59:34;11.40;;;5.50;;
215;SDS011;70668;48.81286795;9.14184224;2024-01-15T10:02:04;11.75;;;5.68;;
215;SDS011;70668;48.81286795;9.14184224;2024-01-15T10:04:34;14.30;;;6.22;;
215;SDS011;70668;48.81286795;9.14184224;2024-01-15T10:07:03;11.95;;;5.90;;
215;SDS011;70668;48.81286795;9.14184224;2024-01-15T10:09:36;14.80;;;5.25;;
215;SDS011;70668;48.81286795;9.14184224;2024-01-15T10:12:05;12.02;;;5.57;;
215;SDS011;70668;48.81286795;9.14184224;2024-01-15T10:14:34;10.25;;;5.40;;
215;SDS011;70668;48.81286795;9.14184224;2024-01-15T10:17:10;12.23;;;5.57;;
215;SDS011;70668;48.81286795;9.14184224;2024-01-15T10:22:25;13.07;;;5.40;;
215;SDS011;70668;48.81286795;9.14184224;2024-01-15T10:24:54;14.23;;;5.60;;
215;SDS011;70668;48.81286795;9.14184224;2024-01-15T10:27:22;14.38;;;6.20;;
215;SDS011;70668;48.81286795;9.14184224;2024-01-15T10:29:51;14.52;;;6.38;;
215;SDS011;70668;48.81286795;9.14184224;2024-01-15T10:32:19;13.68;;;5.72;;
215;SDS011;70668;48.81286795;9.14184224;2024-01-15T10:34:49;10.77;;;5.53;;
215;SDS011;70668;48.81286795;9.14184224;2024-01-15T10:37:20;11.45;;;4.97;;
215;SDS011;70668;48.81286795;9.14184224;2024-01-15T10:39:51;12.40;;;5.32;;
215;SDS011;70668;48.81286795;9.14184224;2024-01-15T10:42:20;11.95;;;5.53;;
215;SDS011;70668;48.81286795;9.14184224;2024-01-15T10:44:48;13.05;;;5.50;;
215;SDS011;70668;48.81286795;9.14184224;2024-01-15T10:47:17;11.40;;;5.45;;
215;SDS011;70668;48.81286795;9.14184224;2024-01-15T10:49:47;14.98;;;5.95;;
215;SDS011;70668;48.81286795;9.14184224;2024-01-15T10:52:15;12.35;;;6.00;;
215;SDS011;70668;48.81286795;9.14184224;2024-01-15T10:54:43;13.45;;;5.50;;
215;SDS011;70668;48.81286795;9.14184224;2024-01-15T10:57:16;14.77;;;5.57;;
215;SDS011;70668;48.81286795;9.14184224;2024-01-15T10:59:45;13.25;;;5.72;;
215;SDS011;70668;48.81286795;9.14184224;2024-01-15T11:02:13;12.05;;;5.75;;
215;SDS011;70668;48.81286795;9.14184224;2024-01-15T11:04:42;14.57;;;5.68;;
215;SDS011;70668;48.81286795;9.14184224;2024-01-15T11:07:11;13.13;;;5.55;;
215;SDS011;70668;48.81286795;9.14184224;2024-01-15T11:09:42;13.07;;;5.07;;
215;SDS011;70668;48.81286795;9.14184224;2024-01-15T11:12:12;10.52;;;5.05;;
215;SDS011;70668;48.81286795;9.14184224;2024-01-15T11:14:47;11.60;;;5.38;;
215;SDS011;70668;48.81286795;9.14184224;2024-01-15T11:17:17;11.95;;;5.88;;
215;SDS011;70668;48.81286795;9.14184224;2024-01-15T11:19:46;14.40;;;5.93;;
215;SDS011;70668;48.81286795;9.14184224;2024-01-15T11:25:15;14.68;;;6.40;;
215;SDS011;70668;48.81286795;9.14184224;2024-01-15T11:27:46;14.73;;;6.75;;
215;SDS011;70668;48.81286795;9.14184224;2024-01-15T11:30:19;15.20;;;7.25;;
215;SDS011;70668;48.81286795;9.14184224;2024-01-15T11:32:48;16.15;;;6.47;;
215;SDS011;70668;48.81286795;9.14184224;2024-01-15T11:35:16;15.95;;;6.63;;
215;SDS011;70668;48.81286795;9.14184224;2024-01-15T11:37:57;14.02;;;6.95;;
215;SDS011;70668;48.81286795;9.14184224;2024-01-15T11:40:36;13.43;;;6.43;;
215;SDS011;70668;48.81286795;9.14184224;2024-01-15T11:43:08;14.90;;;6.43;;
215;SDS011;70668;48.81286795;9.14184224;2024-01-15T11:45:41;13.85;;;6.10;;
215;SDS011;70668;48.81286795;9.14184224;2024-01-15T11:48:10;11.73;;;5.68;;
215;SDS011;70668;48.81286795;9.14184224;2024-01-15T11:50:41;10.85;;;6.00;;
215;SDS011;70668;48.81286795;9.14184224;2024-01-15T11:53:14;11.35;;;5.57;;
215;SDS011;70668;48.81286795;9.14184224;2024-01-15T11:55:45;11.50;;;5.95;;
215;SDS011;70668;48.81286795;9.14184224;2024-01-15T11:58:14;13.57;;;6.85;;
215;SDS011;70668;48.81286795;9.14184224;2024-01-15T12:00:47;14.20;;;6.40;;
215;SDS011;70668;48.81286795;9.14184224;2024-01-15T12:03:16;14.13;;;6.97;;
215;SDS011;70668;48.81286795;9.14184224;2024-01-15T12:05:45;14.63;;;6.82;;
215;SDS011;70668;48.81286795;9.14184224;2024-01-15T12:08:14;15.02;;;6.82;;
215;SDS011;70668;48.81286795;9.14184224;2024-01-15T12:10:42;15.88;;;6.68;;
215;SDS011;70668;48.81286795;9.14184224;2024-01-15T12:13:11;13.80;;;6.72;;
215;SDS011;70668;48.81286795;9.14184224;2024-01-15T12:15:41;15.48;;;7.05;;
215;SDS011;70668;48.81286795;9.14184224;2024-01-15T12:18:13;13.75;;;6.90;;
215;SDS011;70668;48.81286795;9.14184224;2024-01-15T12:20:43;15.07;;;7.40;;
215;SDS011;70668;48.81286795;9.14184224;2024-01-15T12:23:14;16.50;;;7.40;;
215;SDS011;70668;48.81286795;9.14184224;2024-01-15T12:25:42;13.20;;;6.63;;
215;SDS011;70668;48.81286795;9.14184224;2024-01-15T12:28:12;14.45;;;6.60;;
215;SDS011;70668;48.81286795;9.14184224;2024-01-15T12:30:41;11.63;;;5.50;;
215;SDS011;70668;48.81286795;9.14184224;2024-01-15T12:33:09;13.07;;;5.93;;
215;SDS011;70668;48.81286795;9.14184224;2024-01-15T12:35:40;12.65;;;6.13;;
215;SDS011;70668;48.81286795;9.14184224;2024-01-15T12:38:10;13.02;;;6.55;;
215;SDS011;70668;48.81286795;9.14184224;2024-01-15T12:40:39;13.80;;;6.20;;
215;SDS011;70668;48.81286795;9.14184224;2024-01-15T12:43:07;12.60;;;6.28;;
215;SDS011;70668;48.81286795;9.14184224;2024-01-15T12:45:36;13.07;;;6.05;;
215;SDS011;70668;48.81286795;9.14184224;2024-01-15T12:48:05;14.35;;;6.03;;
215;SDS011;70668;48.81286795;9.14184224;2024-01-15T12:50:36;12.32;;;5.75;;
215;SDS011;70668;48.81286795;9.14184224;2024-01-15T12:53:04;12.20;;;5.60;;
215;SDS011;70668;48.81286795;9.14184224;2024-01-15T12:55:33;13.43;;;6.53;;
215;SDS011;70668;48.81286795;9.14184224;2024-01-15T12:58:02;12.88;;;6.15;;
215;SDS011;70668;48.81286795;9.14184224;2024-01-15T13:00:31;13.38;;;6.10;;
215;SDS011;70668;48.81286795;9.14184224;2024-01-15T13:02:59;11.65;;;5.30;;
215;SDS011;70668;48.81286795;9.14184224;2024-01-15T13:05:28;14.05;;;5.35;;
215;SDS011;70668;48.81286795;9.14184224;2024-01-15T13:08:01;11.80;;;5.75;;
215;SDS011;70668;48.81286795;9.14184224;2024-01-15T13:10:31;13.15;;;5.50;;
215;SDS011;70668;48.81286795;9.14184224;2024-01-15T13:12:59;14.52;;;5.90;;
215;SDS011;70668;48.81286795;9.14184224;2024-01-15T13:15:28;13.23;;;6.03;;